Time;durP1;ratioP1;P1;durP2;ratioP2;P2;SDS_P1;SDS_P2;PMS_P1;PMS_P2;Temp;Humidity;BMP_temperature;BMP_pressure;BME280_temperature;BME280_humidity;BME280_pressure;Samples;Min_cycle;Max_cycle;Signal;HPM_P1;HPM_P2
2023/07/12 00:01:18;;;;;;;7.38;3.15;;;28.10;96.70;;;;;;4892552;29;20096;-85
2023/07/12 00:03:47;;;;;;;5.85;3.00;;;28.10;96.70;;;;;;4892364;29;20059;-85
2023/07/12 00:06:18;;;;;;;8.00;3.65;;;28.20;96.70;;;;;;4892256;29;20068;-85
2023/07/12 00:08:47;;;;;;;8.23;4.13;;;28.20;96.70;;;;;;4905507;29;20082;-85
2023/07/12 00:11:18;;;;;;;7.80;3.38;;;28.10;96.70;;;;;;4903859;29;20048;-84
2023/07/12 00:13:46;;;;;;;9.30;3.70;;;28.10;96.70;;;;;;4902195;29;20048;-84
2023/07/12 00:16:22;;;;;;;5.65;3.17;;;28.00;96.70;;;;;;4907527;29;20107;-85
2023/07/12 00:18:51;;;;;;;8.13;3.83;;;27.90;96.70;;;;;;4901031;29;20079;-84
2023/07/12 00:21:22;;;;;;;6.38;3.50;;;28.10;96.70;;;;;;4891753;29;20502;-86
2023/07/12 00:23:52;;;;;;;7.30;3.13;;;28.20;96.70;;;;;;4893077;29;20108;-85
2023/07/12 00:26:22;;;;;;;5.90;3.40;;;28.20;96.70;;;;;;4893065;29;20055;-86
2023/07/12 00:28:51;;;;;;;6.20;2.88;;;28.20;96.70;;;;;;4901906;29;20597;-86
2023/07/12 00:31:23;;;;;;;8.80;3.33;;;28.20;96.70;;;;;;4911878;29;20124;-85
2023/07/12 00:33:52;;;;;;;6.80;3.08;;;28.20;96.70;;;;;;4915483;29;20151;-85
2023/07/12 00:36:24;;;;;;;6.78;3.75;;;28.20;96.70;;;;;;4892737;29;20136;-86
2023/07/12 00:38:52;;;;;;;6.75;3.72;;;28.00;96.70;;;;;;4899708;29;20048;-83
2023/07/12 00:41:30;;;;;;;5.70;3.30;;;27.90;96.70;;;;;;4907418;29;20044;-85
2023/07/12 00:44:04;;;;;;;7.82;3.40;;;27.90;96.70;;;;;;4898732;29;20056;-85
2023/07/12 00:46:40;;;;;;;8.73;2.88;;;28.00;96.70;;;;;;4905419;29;20108;-85
2023/07/12 00:49:09;;;;;;;8.57;3.63;;;28.10;96.70;;;;;;4892999;29;20069;-84
2023/07/12 00:51:45;;;;;;;8.20;3.33;;;28.00;96.70;;;;;;4910186;29;20040;-85
2023/07/12 00:54:16;;;;;;;5.22;3.03;;;28.00;96.70;;;;;;4914135;29;20049;-86
2023/07/12 00:56:45;;;;;;;7.95;2.63;;;27.90;96.70;;;;;;4910916;29;20056;-85
2023/07/12 00:59:20;;;;;;;7.47;3.33;;;27.90;96.70;;;;;;4909391;29;20429;-85
2023/07/12 01:01:52;;;;;;;7.28;3.45;;;27.80;96.70;;;;;;4900113;29;20533;-84
2023/07/12 01:04:24;;;;;;;7.75;3.17;;;27.80;96.70;;;;;;4910493;29;20258;-85
2023/07/12 01:06:53;;;;;;;5.25;3.10;;;27.70;96.70;;;;;;4903842;29;20044;-86
2023/07/12 01:09:21;;;;;;;7.00;3.05;;;27.70;96.70;;;;;;4907710;29;20051;-85
2023/07/12 01:11:50;;;;;;;5.32;2.70;;;27.60;96.70;;;;;;4895058;29;20151;-85
2023/07/12 01:14:19;;;;;;;6.07;2.65;;;27.50;96.70;;;;;;4898357;29;20558;-84
2023/07/12 01:16:53;;;;;;;5.68;2.97;;;27.40;96.70;;;;;;4910819;29;20108;-84
2023/07/12 01:19:21;;;;;;;8.07;3.20;;;27.40;96.70;;;;;;4894638;29;20102;-83
2023/07/12 01:21:53;;;;;;;8.95;3.00;;;27.40;96.70;;;;;;4902981;29;20075;-84
2023/07/12 01:24:23;;;;;;;6.05;2.90;;;27.50;96.70;;;;;;4916010;29;20063;-85
2023/07/12 01:26:56;;;;;;;7.05;3.05;;;27.40;96.70;;;;;;4910548;29;20061;-85
2023/07/12 01:29:30;;;;;;;7.03;3.00;;;27.30;96.70;;;;;;4894420;29;20062;-84
2023/07/12 01:32:00;;;;;;;10.30;3.05;;;27.10;96.70;;;;;;4895048;29;20072;-85
2023/07/12 01:34:30;;;;;;;6.65;2.88;;;27.10;96.70;;;;;;4909806;29;20147;-85
2023/07/12 01:37:04;;;;;;;6.32;2.53;;;27.00;96.70;;;;;;4901619;29;20045;-84
2023/07/12 01:39:33;;;;;;;7.50;3.13;;;26.90;96.70;;;;;;4909379;29;20068;-85
2023/07/12 01:42:02;;;;;;;7.07;2.97;;;27.00;96.70;;;;;;4911084;29;20048;-84
2023/07/12 01:44:30;;;;;;;5.85;2.90;;;27.00;96.70;;;;;;4925465;29;20054;-84
2023/07/12 01:46:59;;;;;;;8.15;2.88;;;27.00;96.70;;;;;;4900007;29;20037;-84
2023/07/12 01:49:27;;;;;;;5.78;3.28;;;26.90;96.70;;;;;;4890239;29;20116;-84
2023/07/12 01:51:55;;;;;;;5.68;3.08;;;26.70;96.70;;;;;;4901073;29;20040;-84
2023/07/12 01:54:25;;;;;;;6.03;3.30;;;26.70;96.70;;;;;;4901616;29;20056;-84
2023/07/12 01:56:53;;;;;;;8.20;3.05;;;26.80;96.70;;;;;;4896593;29;20494;-82
2023/07/12 01:59:22;;;;;;;6.15;3.33;;;26.70;96.70;;;;;;4888219;29;20056;-84
2023/07/12 02:01:51;;;;;;;5.82;2.97;;;26.50;96.70;;;;;;4895182;29;20081;-84
2023/07/12 02:04:19;;;;;;;5.28;2.95;;;26.50;96.70;;;;;;4907388;29;20059;-83
2023/07/12 02:06:48;;;;;;;7.20;2.90;;;26.70;96.70;;;;;;4893828;29;20048;-84
2023/07/12 02:09:17;;;;;;;6.30;2.60;;;26.80;96.70;;;;;;4911122;29;20143;-83
2023/07/12 02:11:46;;;;;;;6.05;2.97;;;26.90;96.70;;;;;;4901619;29;20402;-83
2023/07/12 02:14:15;;;;;;;5.53;2.90;;;26.90;96.70;;;;;;4894417;29;20041;-84
2023/07/12 02:16:43;;;;;;;6.55;3.03;;;26.80;96.70;;;;;;4908446;29;20981;-83
2023/07/12 02:19:14;;;;;;;7.53;3.17;;;26.80;96.70;;;;;;4894252;29;20075;-85
2023/07/12 02:21:43;;;;;;;9.75;2.97;;;26.80;96.70;;;;;;4903218;29;20045;-79
2023/07/12 02:24:11;;;;;;;13.27;2.83;;;26.70;96.70;;;;;;4921899;29;20045;-80
2023/07/12 02:26:41;;;;;;;7.45;3.03;;;26.60;96.70;;;;;;4919026;29;20058;-79
2023/07/12 02:29:11;;;;;;;5.57;3.33;;;26.50;96.70;;;;;;4890617;29;20564;-79
2023/07/12 02:31:39;;;;;;;5.47;2.88;;;26.50;96.70;;;;;;4904703;29;20602;-80
2023/07/12 02:34:08;;;;;;;5.25;2.50;;;26.40;96.70;;;;;;4915622;29;20530;-79
2023/07/12 02:36:36;;;;;;;6.00;3.13;;;26.40;96.70;;;;;;4916780;29;20052;-79
2023/07/12 02:39:05;;;;;;;8.82;3.08;;;26.00;96.70;;;;;;4905275;29;20078;-79
2023/07/12 02:41:33;;;;;;;13.32;4.35;;;25.60;96.70;;;;;;4900676;29;20049;-79
2023/07/12 02:44:01;;;;;;;7.82;3.13;;;25.60;96.70;;;;;;4890603;29;20240;-79
2023/07/12 02:46:31;;;;;;;8.38;3.70;;;25.70;96.70;;;;;;4898933;29;20043;-79
2023/07/12 02:49:00;;;;;;;7.72;3.53;;;25.80;96.70;;;;;;4893489;29;20072;-79
2023/07/12 02:51:28;;;;;;;8.98;4.07;;;25.80;96.70;;;;;;4890544;29;20415;-79
2023/07/12 02:53:56;;;;;;;6.97;3.67;;;25.90;96.70;;;;;;4894092;29;20076;-79
2023/07/12 02:56:25;;;;;;;7.47;3.50;;;25.90;96.70;;;;;;4907634;29;20055;-79
2023/07/12 02:58:53;;;;;;;6.22;3.15;;;26.00;96.70;;;;;;4904067;29;20056;-79
2023/07/12 03:01:22;;;;;;;6.85;3.90;;;26.10;96.70;;;;;;4920448;29;20048;-79
2023/07/12 03:03:52;;;;;;;6.63;4.07;;;26.10;96.70;;;;;;4910064;29;20048;-80
2023/07/12 03:06:21;;;;;;;7.25;3.72;;;26.20;96.70;;;;;;4895131;29;20044;-79
2023/07/12 03:08:50;;;;;;;6.05;3.40;;;26.20;96.70;;;;;;4908638;29;20189;-80
2023/07/12 03:11:18;;;;;;;8.45;3.70;;;26.20;96.70;;;;;;4919026;29;20059;-77
2023/07/12 03:13:49;;;;;;;7.30;3.40;;;26.20;96.70;;;;;;4881014;29;20060;-80
2023/07/12 03:16:17;;;;;;;7.35;4.10;;;26.20;96.70;;;;;;4921503;29;20530;-79
2023/07/12 03:18:45;;;;;;;9.43;4.15;;;26.10;96.70;;;;;;4908122;29;20055;-79
2023/07/12 03:21:16;;;;;;;7.88;4.18;;;26.00;96.70;;;;;;4896735;29;20080;-79
2023/07/12 03:23:45;;;;;;;6.00;3.58;;;25.90;96.70;;;;;;4904109;29;20052;-80
2023/07/12 03:26:13;;;;;;;7.00;3.50;;;25.90;96.70;;;;;;4900394;29;20040;-79
2023/07/12 03:28:41;;;;;;;8.00;4.38;;;26.00;96.70;;;;;;4899254;29;20053;-79
2023/07/12 03:31:11;;;;;;;5.75;3.83;;;26.00;96.70;;;;;;4895975;29;20045;-80
2023/07/12 03:33:40;;;;;;;7.30;3.85;;;26.00;96.70;;;;;;4891528;29;20048;-79
2023/07/12 03:36:09;;;;;;;8.95;3.47;;;26.10;96.70;;;;;;4888515;29;20036;-79
2023/07/12 03:38:39;;;;;;;10.60;4.25;;;26.10;96.70;;;;;;4900743;29;20072;-80
2023/07/12 03:41:10;;;;;;;10.27;3.75;;;26.10;96.70;;;;;;4908192;29;20491;-80
2023/07/12 03:43:39;;;;;;;6.68;3.70;;;26.20;96.70;;;;;;4906747;29;20518;-80
2023/07/12 03:46:07;;;;;;;11.02;3.97;;;26.10;96.70;;;;;;4895699;29;20313;-80
2023/07/12 03:48:36;;;;;;;7.05;3.72;;;26.00;96.70;;;;;;4897087;29;20163;-81
2023/07/12 03:51:05;;;;;;;6.15;3.65;;;26.00;96.70;;;;;;4896420;29;20048;-81
2023/07/12 03:53:35;;;;;;;8.15;3.88;;;26.00;96.70;;;;;;4912833;29;20132;-79
2023/07/12 03:56:05;;;;;;;7.47;3.80;;;25.90;96.70;;;;;;4911844;29;20044;-79
2023/07/12 03:58:36;;;;;;;10.43;3.85;;;25.90;96.70;;;;;;4898189;29;20056;-79
2023/07/12 04:01:06;;;;;;;8.30;3.88;;;26.00;96.70;;;;;;4898584;29;20138;-79
2023/07/12 04:03:35;;;;;;;10.45;3.70;;;26.10;96.70;;;;;;4911903;29;20059;-79
2023/07/12 04:06:05;;;;;;;7.82;4.05;;;25.90;96.70;;;;;;4895218;29;20044;-79
2023/07/12 04:08:34;;;;;;;9.45;3.75;;;25.80;96.70;;;;;;4897989;29;20059;-78
2023/07/12 04:11:03;;;;;;;8.90;3.65;;;25.80;96.70;;;;;;4886707;29;20574;-79
2023/07/12 04:13:33;;;;;;;8.18;3.30;;;25.90;96.70;;;;;;4872152;29;20048;-79
2023/07/12 04:16:02;;;;;;;8.30;4.45;;;26.00;96.70;;;;;;4909433;29;20151;-80
2023/07/12 04:18:30;;;;;;;8.32;3.83;;;26.10;96.70;;;;;;4889425;29;20088;-79
2023/07/12 04:21:04;;;;;;;11.45;4.43;;;26.00;96.70;;;;;;4901388;29;20051;-79
2023/07/12 04:23:33;;;;;;;6.28;3.70;;;26.10;96.70;;;;;;4911688;29;20518;-80
2023/07/12 04:26:04;;;;;;;6.82;3.95;;;26.10;96.70;;;;;;4900250;29;20107;-80
2023/07/12 04:28:39;;;;;;;10.48;3.95;;;26.20;96.70;;;;;;4910508;29;20048;-79
2023/07/12 04:31:10;;;;;;;7.82;3.92;;;26.20;96.70;;;;;;4921476;29;20067;-80
2023/07/12 04:33:40;;;;;;;9.13;4.22;;;26.20;96.70;;;;;;4904227;29;20084;-79
2023/07/12 04:36:09;;;;;;;10.20;3.58;;;26.20;96.70;;;;;;4896529;29;20048;-79
2023/07/12 04:38:37;;;;;;;8.38;4.10;;;26.20;96.70;;;;;;4905438;29;20048;-80
2023/07/12 04:41:06;;;;;;;7.03;3.78;;;26.30;96.70;;;;;;4890147;29;20059;-79
2023/07/12 04:43:37;;;;;;;9.43;3.35;;;26.30;96.70;;;;;;4880465;29;20835;-79
2023/07/12 04:46:05;;;;;;;11.00;4.10;;;26.40;96.70;;;;;;4909264;29;20059;-79
2023/07/12 04:48:33;;;;;;;7.70;3.47;;;26.50;96.70;;;;;;4904286;29;20056;-79
2023/07/12 04:51:03;;;;;;;8.60;4.20;;;26.60;96.70;;;;;;4897053;29;20048;-80
2023/07/12 04:53:32;;;;;;;8.70;3.80;;;26.60;96.70;;;;;;4892484;29;20139;-80
2023/07/12 04:56:01;;;;;;;8.77;4.47;;;26.50;96.70;;;;;;4899950;29;20443;-79
2023/07/12 04:58:29;;;;;;;8.82;3.63;;;26.50;96.70;;;;;;4887108;29;20052;-80
2023/07/12 05:00:59;;;;;;;6.57;3.60;;;26.60;96.70;;;;;;4924974;29;20071;-79
2023/07/12 05:03:28;;;;;;;10.57;4.50;;;26.70;96.70;;;;;;4902173;29;20510;-80
2023/07/12 05:05:57;;;;;;;10.07;4.07;;;26.70;96.70;;;;;;4895055;29;20420;-79
2023/07/12 05:08:33;;;;;;;6.40;3.80;;;26.70;96.70;;;;;;4908850;29;20050;-80
2023/07/12 05:11:03;;;;;;;5.40;3.50;;;26.70;96.70;;;;;;4893722;29;20048;-81
2023/07/12 05:13:33;;;;;;;7.82;4.13;;;26.70;96.70;;;;;;4891808;29;20052;-79
2023/07/12 05:16:03;;;;;;;7.50;3.58;;;26.80;96.70;;;;;;4902834;29;20056;-77
2023/07/12 05:18:31;;;;;;;14.68;4.40;;;26.70;96.70;;;;;;4921068;29;20052;-77
2023/07/12 05:20:59;;;;;;;10.55;4.22;;;26.70;96.70;;;;;;4911062;29;20036;-80
2023/07/12 05:23:28;;;;;;;10.10;4.30;;;26.70;96.70;;;;;;4905670;29;20057;-79
2023/07/12 05:25:56;;;;;;;9.65;4.78;;;26.70;96.70;;;;;;4902314;29;20168;-78
2023/07/12 05:28:24;;;;;;;11.35;4.40;;;26.70;96.70;;;;;;4889971;29;20053;-78
2023/07/12 05:30:52;;;;;;;8.70;4.15;;;26.70;96.70;;;;;;4897973;29;20406;-78
2023/07/12 05:33:22;;;;;;;9.95;3.83;;;26.80;96.70;;;;;;4919210;29;20055;-77
2023/07/12 05:35:51;;;;;;;10.85;4.53;;;26.80;96.70;;;;;;4907524;29;20085;-78
2023/07/12 05:38:19;;;;;;;11.52;4.95;;;26.80;96.70;;;;;;4901804;29;20140;-78
2023/07/12 05:40:47;;;;;;;11.65;4.97;;;26.80;96.70;;;;;;4891417;29;20124;-79
2023/07/12 05:43:23;;;;;;;11.52;5.03;;;26.80;96.70;;;;;;4890811;29;20385;-82
2023/07/12 05:45:58;;;;;;;11.27;4.80;;;26.90;96.70;;;;;;4915001;29;20577;-78
2023/07/12 05:48:28;;;;;;;12.23;5.03;;;26.90;96.70;;;;;;4890096;29;20430;-79
2023/07/12 05:50:59;;;;;;;10.40;5.38;;;27.10;96.70;;;;;;4905066;29;20132;-77
2023/07/12 05:53:28;;;;;;;14.52;5.72;;;27.10;96.70;;;;;;4896809;29;20566;-76
2023/07/12 05:55:57;;;;;;;8.13;5.07;;;27.00;96.70;;;;;;4899869;29;20044;-78
2023/07/12 05:58:26;;;;;;;9.75;5.20;;;27.10;96.70;;;;;;4914608;29;20052;-79
2023/07/12 06:00:58;;;;;;;8.70;4.95;;;27.20;96.70;;;;;;4902492;29;20162;-79
2023/07/12 06:03:29;;;;;;;11.40;5.63;;;27.20;96.70;;;;;;4899047;29;21700;-78
2023/07/12 06:05:58;;;;;;;11.35;4.55;;;27.30;96.70;;;;;;4909259;29;20051;-78
2023/07/12 06:08:26;;;;;;;8.70;4.55;;;27.30;96.70;;;;;;4921515;29;20443;-78
2023/07/12 06:10:55;;;;;;;11.00;4.07;;;27.40;96.70;;;;;;4897752;29;20052;-77
2023/07/12 06:13:23;;;;;;;12.52;4.05;;;27.50;96.70;;;;;;4899992;29;20061;-78
2023/07/12 06:15:52;;;;;;;7.97;3.58;;;27.60;96.70;;;;;;4907098;29;20064;-78
2023/07/12 06:18:20;;;;;;;8.93;3.83;;;27.60;96.70;;;;;;4889540;29;20048;-78
2023/07/12 06:20:56;;;;;;;8.27;3.42;;;27.60;96.70;;;;;;4904863;29;20103;-78
2023/07/12 06:23:24;;;;;;;;;;;27.60;96.70;;;;;;4882228;29;20108;-79
2023/07/12 06:25:56;;;;;;;11.02;4.63;;;27.70;96.70;;;;;;4901160;29;19930;-79
2023/07/12 06:28:25;;;;;;;10.60;3.90;;;27.80;96.70;;;;;;4909256;29;20422;-78
2023/07/12 06:30:53;;;;;;;8.82;3.92;;;27.80;96.70;;;;;;4923497;29;20099;-79
2023/07/12 06:33:21;;;;;;;9.80;3.88;;;27.90;96.70;;;;;;4903294;29;20040;-79
2023/07/12 06:35:50;;;;;;;7.05;3.45;;;28.00;96.70;;;;;;4894783;29;20044;-79
2023/07/12 06:38:19;;;;;;;6.63;3.45;;;28.00;96.70;;;;;;4889476;29;20558;-79
2023/07/12 06:40:47;;;;;;;5.88;3.22;;;28.10;96.70;;;;;;4904989;29;20061;-79
2023/07/12 06:43:15;;;;;;;12.15;3.97;;;28.10;96.70;;;;;;4889474;29;20065;-79
2023/07/12 06:45:45;;;;;;;8.10;3.40;;;28.10;96.70;;;;;;4911896;29;20051;-79
2023/07/12 06:48:13;;;;;;;7.57;3.25;;;28.20;96.70;;;;;;4892561;29;20049;-79
2023/07/12 06:50:41;;;;;;;6.55;2.60;;;28.20;96.70;;;;;;4908656;29;20051;-79
2023/07/12 06:53:10;;;;;;;5.70;3.13;;;28.20;96.70;;;;;;4908510;29;20056;-79
2023/07/12 06:55:43;;;;;;;5.95;2.78;;;28.30;96.70;;;;;;4917988;29;20046;-78
2023/07/12 06:58:11;;;;;;;8.23;2.70;;;28.50;96.70;;;;;;4901595;29;20121;-79
2023/07/12 07:00:40;;;;;;;4.70;2.80;;;28.60;96.70;;;;;;4912042;29;20108;-79
2023/07/12 07:03:09;;;;;;;6.50;2.80;;;28.60;96.70;;;;;;4916285;29;20514;-78
2023/07/12 07:05:40;;;;;;;8.43;3.08;;;28.80;96.70;;;;;;4895620;29;20051;-79
2023/07/12 07:08:08;;;;;;;8.95;3.83;;;28.90;96.70;;;;;;4907010;29;20062;-78
2023/07/12 07:10:38;;;;;;;6.95;3.10;;;29.00;96.70;;;;;;4890241;29;20044;-79
2023/07/12 07:13:06;;;;;;;4.80;3.03;;;29.00;96.70;;;;;;4892121;29;20044;-78
2023/07/12 07:15:35;;;;;;;4.47;2.47;;;29.00;96.70;;;;;;4908248;29;20052;-79
2023/07/12 07:18:03;;;;;;;8.95;3.42;;;28.90;96.70;;;;;;4913669;29;20054;-77
2023/07/12 07:20:31;;;;;;;6.18;3.13;;;28.80;96.70;;;;;;4919679;29;20052;-77
2023/07/12 07:23:00;;;;;;;6.15;2.72;;;28.90;96.70;;;;;;4922101;29;20063;-77
2023/07/12 07:25:28;;;;;;;7.80;2.97;;;29.00;96.70;;;;;;4908480;29;20080;-77
2023/07/12 07:27:57;;;;;;;5.85;2.78;;;29.20;96.70;;;;;;4907478;29;20052;-77
2023/07/12 07:30:26;;;;;;;6.50;3.70;;;29.40;96.70;;;;;;4887857;29;20178;-78
2023/07/12 07:32:55;;;;;;;6.78;3.33;;;29.50;96.70;;;;;;4916404;29;20091;-77
2023/07/12 07:35:23;;;;;;;5.78;3.08;;;29.40;96.70;;;;;;4906826;29;20178;-78
2023/07/12 07:37:51;;;;;;;9.82;3.40;;;29.30;96.70;;;;;;4914257;29;20143;-78
2023/07/12 07:40:19;;;;;;;11.35;3.60;;;29.10;96.70;;;;;;4913833;29;20471;-79
2023/07/12 07:42:47;;;;;;;9.25;3.45;;;29.10;96.70;;;;;;4903710;29;20048;-78
2023/07/12 07:45:17;;;;;;;7.65;3.05;;;29.10;96.70;;;;;;4896241;29;20060;-78
2023/07/12 07:47:45;;;;;;;9.70;3.05;;;29.10;96.70;;;;;;4909972;29;20092;-78
2023/07/12 07:50:13;;;;;;;6.97;3.65;;;29.00;96.70;;;;;;4902910;29;20048;-79
2023/07/12 07:52:41;;;;;;;8.70;3.28;;;29.00;96.70;;;;;;4907772;29;20056;-77
2023/07/12 07:55:10;;;;;;;11.23;3.38;;;29.00;96.70;;;;;;4904978;29;20167;-77
2023/07/12 07:57:38;;;;;;;13.23;3.67;;;29.00;96.70;;;;;;4890942;29;20052;-78
2023/07/12 08:00:10;;;;;;;11.25;3.85;;;29.00;96.70;;;;;;4907196;29;20036;-78
2023/07/12 08:02:42;;;;;;;9.68;3.72;;;28.90;96.70;;;;;;4917443;29;20115;-77
2023/07/12 08:05:10;;;;;;;10.05;3.38;;;28.90;96.70;;;;;;4914485;29;20503;-78
2023/07/12 08:07:39;;;;;;;6.57;3.58;;;28.90;96.70;;;;;;4905042;29;20193;-77
2023/07/12 08:10:10;;;;;;;8.20;3.97;;;29.10;96.70;;;;;;4921724;29;20147;-79
2023/07/12 08:12:39;;;;;;;11.70;3.80;;;29.20;96.70;;;;;;4917019;29;20063;-78
2023/07/12 08:15:08;;;;;;;8.25;3.63;;;29.30;96.70;;;;;;4914085;29;20123;-78
2023/07/12 08:17:36;;;;;;;6.03;3.42;;;29.30;96.70;;;;;;4907741;29;20052;-78
2023/07/12 08:20:09;;;;;;;8.77;3.17;;;29.30;96.70;;;;;;4907311;29;20048;-78
2023/07/12 08:22:37;;;;;;;10.70;3.60;;;29.40;96.70;;;;;;4907202;29;20661;-79
2023/07/12 08:25:06;;;;;;;5.10;3.17;;;29.50;96.70;;;;;;4903303;29;20045;-78
2023/07/12 08:27:34;;;;;;;5.10;3.13;;;29.50;96.70;;;;;;4894021;29;20048;-79
2023/07/12 08:30:02;;;;;;;7.80;3.20;;;29.50;96.70;;;;;;4888835;29;20824;-78
2023/07/12 08:32:34;;;;;;;8.95;3.65;;;29.60;96.70;;;;;;4897389;29;20448;-78
2023/07/12 08:35:03;;;;;;;6.13;2.72;;;29.70;96.70;;;;;;4906172;29;20471;-78
2023/07/12 08:37:33;;;;;;;9.40;3.30;;;29.80;96.70;;;;;;4921594;29;20405;-79
2023/07/12 08:40:02;;;;;;;7.00;3.33;;;29.80;96.70;;;;;;4907336;29;20139;-78
2023/07/12 08:42:35;;;;;;;9.43;3.42;;;29.80;96.70;;;;;;4913483;29;20074;-77
2023/07/12 08:45:20;;;;;;;8.40;2.92;;;29.90;96.70;;;;;;4905106;29;20102;-78
2023/07/12 08:47:50;;;;;;;7.17;3.27;;;30.00;96.70;;;;;;4921614;29;20044;-79
2023/07/12 08:50:19;;;;;;;12.05;3.83;;;30.10;96.70;;;;;;4914051;29;20300;-78
2023/07/12 08:52:49;;;;;;;6.18;3.53;;;30.10;96.70;;;;;;4899013;29;20079;-78
2023/07/12 08:55:20;;;;;;;9.68;3.42;;;30.20;96.70;;;;;;4918709;29;20419;-78
2023/07/12 08:57:53;;;;;;;7.25;3.10;;;30.30;96.70;;;;;;4921849;29;20730;-78
2023/07/12 09:00:24;;;;;;;8.68;3.28;;;30.40;96.70;;;;;;4916125;29;20100;-78
2023/07/12 09:02:52;;;;;;;10.80;3.58;;;30.60;96.70;;;;;;4888620;29;20052;-78
2023/07/12 09:05:24;;;;;;;8.63;3.33;;;30.60;96.70;;;;;;4902705;29;20108;-78
2023/07/12 09:07:59;;;;;;;9.40;3.42;;;30.60;96.70;;;;;;4909089;29;20131;-78
2023/07/12 09:10:32;;;;;;;6.72;3.20;;;30.70;96.70;;;;;;4895217;29;20049;-78
2023/07/12 09:13:01;;;;;;;7.25;3.70;;;30.90;96.70;;;;;;4903013;29;20148;-78
2023/07/12 09:15:37;;;;;;;10.15;3.00;;;30.90;96.70;;;;;;4894045;29;20044;-78
2023/07/12 09:18:07;;;;;;;7.88;3.45;;;31.00;96.70;;;;;;4893713;29;20056;-78
2023/07/12 09:20:40;;;;;;;9.15;3.03;;;31.10;96.70;;;;;;4910726;29;20143;-78
2023/07/12 09:23:13;;;;;;;10.15;3.25;;;31.20;96.70;;;;;;4922809;29;20055;-78
2023/07/12 09:25:47;;;;;;;7.50;3.33;;;31.20;96.70;;;;;;4903616;29;20048;-80
2023/07/12 09:28:15;;;;;;;7.43;3.10;;;31.30;96.70;;;;;;4894938;29;20052;-78
2023/07/12 09:30:43;;;;;;;9.50;2.92;;;31.50;96.70;;;;;;4921227;29;20047;-78
2023/07/12 09:33:18;;;;;;;10.23;3.20;;;31.60;96.70;;;;;;4905649;29;20052;-78
2023/07/12 09:35:47;;;;;;;17.98;3.60;;;31.70;96.70;;;;;;4913559;29;20451;-80
2023/07/12 09:38:18;;;;;;;9.40;4.20;;;31.70;96.70;;;;;;4907763;29;20044;-78
2023/07/12 09:40:49;;;;;;;8.15;3.30;;;31.80;96.70;;;;;;4916474;29;20057;-78
2023/07/12 09:43:19;;;;;;;12.80;3.97;;;31.90;96.70;;;;;;4924684;29;20083;-78
2023/07/12 09:45:55;;;;;;;9.18;3.53;;;31.90;96.70;;;;;;4902435;29;20140;-78
2023/07/12 09:48:44;;;;;;;13.25;3.70;;;32.10;96.70;;;;;;4892244;29;20048;-80
2023/07/12 09:51:27;;;;;;;8.43;3.55;;;32.20;96.70;;;;;;4915047;29;20156;-79
2023/07/12 09:54:03;;;;;;;9.40;4.05;;;32.20;96.70;;;;;;4922074;29;20506;-79
2023/07/12 09:56:39;;;;;;;11.13;3.53;;;32.10;96.70;;;;;;4912923;29;20401;-79
2023/07/12 09:59:12;;;;;;;12.75;3.72;;;32.00;96.70;;;;;;4899712;29;20045;-78
2023/07/12 10:01:48;;;;;;;8.75;3.55;;;31.90;96.70;;;;;;4905247;29;20435;-78
2023/07/12 10:04:37;;;;;;;14.20;4.17;;;32.10;96.70;;;;;;4875068;29;20143;-78
2023/07/12 10:07:14;;;;;;;9.10;3.83;;;32.20;96.70;;;;;;4895259;29;20071;-78
2023/07/12 10:09:47;;;;;;;11.48;3.70;;;32.30;96.70;;;;;;4897722;29;20488;-78
2023/07/12 10:12:24;;;;;;;9.90;3.45;;;32.30;96.70;;;;;;4890833;29;20056;-77
2023/07/12 10:14:54;;;;;;;12.98;3.92;;;32.30;96.70;;;;;;4885811;29;20056;-78
2023/07/12 10:17:32;;;;;;;10.63;4.07;;;32.30;96.70;;;;;;4902822;29;20059;-79
2023/07/12 10:20:01;;;;;;;8.68;3.85;;;32.40;96.70;;;;;;4901847;29;20045;-78
2023/07/12 10:22:33;;;;;;;13.55;3.45;;;32.50;96.70;;;;;;4904314;29;20048;-78
2023/07/12 10:25:10;;;;;;;8.45;3.63;;;32.50;96.70;;;;;;4905875;29;20052;-78
2023/07/12 10:27:45;;;;;;;15.82;4.22;;;32.50;96.70;;;;;;4898523;29;20111;-78
2023/07/12 10:30:17;;;;;;;15.27;4.00;;;32.50;96.70;;;;;;4890986;29;21004;-78
2023/07/12 10:32:50;;;;;;;16.48;4.60;;;32.50;96.70;;;;;;4922771;29;20062;-78
2023/07/12 10:35:23;;;;;;;16.38;4.00;;;32.60;96.70;;;;;;4907952;29;20064;-78
2023/07/12 10:37:58;;;;;;;10.02;3.55;;;32.80;96.70;;;;;;4890637;29;20058;-78
2023/07/12 10:40:31;;;;;;;11.77;3.83;;;32.90;96.70;;;;;;4898581;29;20080;-78
2023/07/12 10:43:06;;;;;;;12.88;3.85;;;32.90;96.70;;;;;;4922370;29;20052;-77
2023/07/12 10:45:37;;;;;;;11.80;3.70;;;33.00;96.70;;;;;;4894402;29;20471;-80
2023/07/12 10:57:44;;;;;;;8.07;3.60;;;33.40;96.70;;;;;;5768611;23;20098;-83
2023/07/12 11:00:25;;;;;;;11.60;3.95;;;33.60;96.70;;;;;;4911213;29;20070;-83
2023/07/12 11:03:02;;;;;;;11.57;3.58;;;33.70;96.70;;;;;;4887139;29;20186;-82
2023/07/12 11:05:40;;;;;;;11.02;4.10;;;33.80;96.70;;;;;;4909381;29;20048;-80
2023/07/12 11:08:39;;;;;;;13.30;4.22;;;33.70;96.70;;;;;;4905438;29;20043;-80
2023/07/12 11:11:33;;;;;;;19.67;4.45;;;33.80;96.70;;;;;;4909300;29;20044;-80
2023/07/12 11:14:23;;;;;;;10.63;4.03;;;34.10;96.70;;;;;;4907332;29;20062;-81
2023/07/12 11:17:13;;;;;;;14.13;4.60;;;34.30;96.70;;;;;;4904806;29;20151;-82
2023/07/12 11:20:07;;;;;;;8.85;3.85;;;34.20;96.70;;;;;;4902505;29;20100;-83
2023/07/12 11:22:55;;;;;;;14.38;4.22;;;34.50;96.70;;;;;;4906443;29;20064;-82
2023/07/12 11:25:28;;;;;;;13.60;4.10;;;34.50;96.70;;;;;;4900206;29;20046;-82
2023/07/12 11:28:00;;;;;;;10.68;3.70;;;34.40;96.70;;;;;;4895762;29;20068;-81
2023/07/12 11:30:41;;;;;;;11.52;4.20;;;34.30;96.70;;;;;;4900619;29;20051;-82
2023/07/12 11:33:21;;;;;;;13.43;3.42;;;34.30;96.70;;;;;;4911320;29;20482;-81
2023/07/12 11:35:54;;;;;;;17.17;4.53;;;34.50;96.70;;;;;;4903700;29;20100;-82
2023/07/12 11:38:27;;;;;;;10.18;3.75;;;34.60;96.70;;;;;;4894065;29;20054;-82
2023/07/12 11:40:57;;;;;;;13.20;4.13;;;34.70;96.70;;;;;;4894613;29;20074;-82
2023/07/12 11:43:34;;;;;;;12.45;3.78;;;34.80;96.70;;;;;;4899244;29;20498;-82
2023/07/12 11:46:11;;;;;;;16.13;4.40;;;34.80;96.70;;;;;;4894519;29;20066;-84
2023/07/12 11:48:43;;;;;;;15.25;3.80;;;34.90;96.70;;;;;;4896128;29;20076;-83
2023/07/12 11:51:20;;;;;;;14.27;4.20;;;35.10;96.70;;;;;;4902113;29;20483;-81
2023/07/12 11:53:52;;;;;;;11.27;4.25;;;35.10;96.70;;;;;;4901723;29;20048;-81
2023/07/12 11:56:20;;;;;;;9.55;4.00;;;35.00;96.70;;;;;;4896013;29;20107;-83
2023/07/12 11:58:48;;;;;;;12.20;5.00;;;35.00;96.70;;;;;;4893194;29;20064;-85
2023/07/12 12:01:21;;;;;;;12.90;4.30;;;35.10;96.70;;;;;;4929928;29;20107;-83
2023/07/12 12:03:49;;;;;;;9.60;4.40;;;35.30;96.70;;;;;;4914527;29;20039;-83
2023/07/12 12:06:19;;;;;;;15.48;4.22;;;35.40;96.70;;;;;;4933567;29;20043;-84
2023/07/12 12:08:54;;;;;;;12.73;4.50;;;35.40;96.70;;;;;;4914487;29;20597;-84
2023/07/12 12:11:25;;;;;;;10.27;4.20;;;35.30;96.70;;;;;;4910309;29;20079;-84
2023/07/12 12:13:54;;;;;;;14.02;4.72;;;35.40;96.70;;;;;;4921129;29;20110;-83
2023/07/12 12:16:27;;;;;;;14.00;4.13;;;35.50;96.70;;;;;;4912227;29;20051;-84
2023/07/12 12:18:58;;;;;;;12.70;4.30;;;35.50;96.70;;;;;;4929913;29;20130;-84
2023/07/12 12:21:27;;;;;;;13.45;4.53;;;35.50;96.70;;;;;;4927767;29;20051;-84
2023/07/12 12:23:57;;;;;;;15.50;4.28;;;35.40;96.70;;;;;;4937012;29;20050;-83
2023/07/12 12:26:27;;;;;;;12.07;4.80;;;35.50;96.70;;;;;;4904981;29;20079;-83
2023/07/12 12:29:00;;;;;;;10.43;4.40;;;35.80;96.70;;;;;;4912588;29;20075;-84
2023/07/12 12:31:32;;;;;;;10.40;4.50;;;36.10;96.70;;;;;;4923593;29;20059;-82
2023/07/12 12:34:05;;;;;;;11.07;4.30;;;36.20;96.70;;;;;;4917345;29;20785;-83
2023/07/12 12:36:34;;;;;;;11.68;4.85;;;36.20;96.70;;;;;;4925603;29;20139;-85
2023/07/12 12:39:15;;;;;;;16.17;4.78;;;36.10;96.70;;;;;;4918834;29;20043;-84
2023/07/12 12:41:50;;;;;;;15.32;4.70;;;35.90;96.70;;;;;;4922693;29;20054;-85
2023/07/12 12:44:19;;;;;;;15.07;4.60;;;36.00;96.70;;;;;;4916931;29;20055;-85
2023/07/12 12:46:54;;;;;;;14.93;4.88;;;36.30;96.70;;;;;;4929578;29;20048;-84
2023/07/12 12:49:27;;;;;;;14.57;4.47;;;36.40;96.70;;;;;;4912072;29;20465;-83
2023/07/12 12:52:15;;;;;;;13.90;5.22;;;36.50;96.70;;;;;;4922178;29;20051;-84
2023/07/12 12:54:46;;;;;;;14.07;4.68;;;36.50;96.70;;;;;;4932099;29;20071;-85
2023/07/12 12:57:26;;;;;;;13.70;4.43;;;36.70;96.70;;;;;;4918477;29;20052;-86
2023/07/12 12:59:57;;;;;;;15.63;4.60;;;36.90;96.70;;;;;;4918199;29;20059;-84
2023/07/12 13:02:29;;;;;;;10.27;4.70;;;36.70;96.70;;;;;;4930084;29;20078;-83
2023/07/12 13:05:01;;;;;;;16.50;4.72;;;36.70;96.70;;;;;;4935040;29;20079;-83
2023/07/12 13:07:42;;;;;;;14.40;4.70;;;36.80;96.70;;;;;;4916216;29;20055;-84
2023/07/12 13:10:30;;;;;;;12.18;4.57;;;36.90;96.70;;;;;;4916892;29;20070;-84
2023/07/12 13:13:03;;;;;;;16.67;5.28;;;36.60;96.70;;;;;;4921845;29;20048;-84